Time;durP1;ratioP1;P1;durP2;ratioP2;P2;SDS_P1;SDS_P2;PMS_P1;PMS_P2;Temp;Humidity;BMP_temperature;BMP_pressure;BME280_temperature;BME280_humidity;BME280_pressure;Samples;Min_cycle;Max_cycle;Signal;HPM_P1;HPM_P2
2021/10/18 00:00:49;;;;;;;29.08;17.67;;;256.90;2073.60;;;;;;4937403;29;20031;-72
2021/10/18 00:03:15;;;;;;;26.80;17.08;;;256.60;2073.60;;;;;;4937010;29;20082;-71
2021/10/18 00:05:40;;;;;;;22.35;16.17;;;256.80;2099.20;;;;;;4936913;29;20126;-71
2021/10/18 00:08:06;;;;;;;27.20;19.05;;;256.80;2099.20;;;;;;4936881;29;20522;-71
2021/10/18 00:10:32;;;;;;;25.70;18.55;;;256.70;2099.20;;;;;;4936942;29;20036;-70
2021/10/18 00:12:58;;;;;;;27.52;18.85;;;256.70;2099.20;;;;;;4936626;29;20475;-69
2021/10/18 00:15:23;;;;;;;25.52;18.80;;;256.70;2073.60;;;;;;4936812;29;20482;-68
2021/10/18 00:17:49;;;;;;;23.50;17.80;;;256.70;2099.20;;;;;;4936904;29;20132;-70
2021/10/18 00:20:16;;;;;;;27.63;18.45;;;256.70;2099.20;;;;;;4936691;29;20383;-69
2021/10/18 00:22:42;;;;;;;25.75;18.48;;;256.70;2073.60;;;;;;4937040;29;20038;-71
2021/10/18 00:25:08;;;;;;;28.88;18.80;;;256.70;2073.60;;;;;;4936455;29;20034;-70
2021/10/18 00:27:35;;;;;;;20.50;16.02;;;256.60;2099.20;;;;;;4936670;29;20130;-72
2021/10/18 00:30:00;;;;;;;21.75;15.88;;;256.60;2099.20;;;;;;4936703;29;20047;-69
2021/10/18 00:32:26;;;;;;;18.55;14.95;;;256.70;2073.60;;;;;;4936749;29;20391;-72
2021/10/18 00:34:52;;;;;;;22.00;14.88;;;256.60;2099.20;;;;;;4936297;29;20039;-71
2021/10/18 00:37:18;;;;;;;21.90;14.60;;;256.70;2073.60;;;;;;4936508;29;20475;-72
2021/10/18 00:39:44;;;;;;;23.33;15.27;;;256.60;2073.60;;;;;;4943293;29;20120;-70
2021/10/18 00:42:10;;;;;;;17.70;13.02;;;256.70;2073.60;;;;;;4936153;29;20031;-74
2021/10/18 00:44:37;;;;;;;21.42;14.32;;;256.50;2073.60;;;;;;4936350;29;20027;-71
2021/10/18 00:47:03;;;;;;;21.75;15.43;;;256.50;2099.20;;;;;;4936117;29;20107;-67
2021/10/18 00:49:29;;;;;;;18.88;13.85;;;256.50;2073.60;;;;;;4934425;29;20131;-71
2021/10/18 00:51:56;;;;;;;22.05;14.38;;;256.40;2099.20;;;;;;4936089;29;20032;-70
2021/10/18 00:54:22;;;;;;;17.50;13.93;;;256.50;2073.60;;;;;;4935858;29;20047;-70
2021/10/18 00:56:48;;;;;;;19.65;14.15;;;256.40;2073.60;;;;;;4936586;29;20106;-70
2021/10/18 00:59:14;;;;;;;20.90;14.57;;;256.80;2048.00;;;;;;4936024;29;20059;-71
2021/10/18 01:01:41;;;;;;;18.63;14.65;;;256.70;2048.00;;;;;;4936262;29;20016;-70
2021/10/18 01:04:07;;;;;;;20.42;14.13;;;256.50;2073.60;;;;;;4936185;29;20052;-71
2021/10/18 01:06:33;;;;;;;24.58;15.35;;;256.50;2073.60;;;;;;4936139;29;20063;-71
2021/10/18 01:08:59;;;;;;;21.75;15.35;;;256.40;2073.60;;;;;;4936071;29;20458;-70
2021/10/18 01:11:24;;;;;;;23.67;16.73;;;256.50;2048.00;;;;;;4935598;29;20103;-70
2021/10/18 01:13:50;;;;;;;23.60;16.33;;;;;;;;;;4936080;29;20024;-70
2021/10/18 01:16:17;;;;;;;21.42;15.45;;;;;;;;;;4935795;29;20418;-70
2021/10/18 01:18:42;;;;;;;23.88;16.05;;;256.60;2022.40;;;;;;4935977;29;20027;-71
2021/10/18 01:21:08;;;;;;;22.70;15.98;;;256.40;2048.00;;;;;;4936247;29;20394;-69
2021/10/18 01:23:34;;;;;;;21.67;14.75;;;256.50;2048.00;;;;;;4935413;29;20020;-70
2021/10/18 01:26:00;;;;;;;20.60;15.05;;;256.30;2073.60;;;;;;4935663;29;20032;-70
2021/10/18 01:28:26;;;;;;;20.25;14.20;;;256.40;2073.60;;;;;;4935385;29;20019;-70
2021/10/18 01:30:52;;;;;;;19.38;14.18;;;256.20;2073.60;;;;;;4935728;29;20043;-70
2021/10/18 01:33:18;;;;;;;17.95;13.18;;;256.20;2073.60;;;;;;4935963;29;20027;-71
2021/10/18 01:35:43;;;;;;;17.25;12.68;;;256.10;2099.20;;;;;;4935544;29;20111;-70
2021/10/18 01:38:09;;;;;;;16.05;12.55;;;256.10;2124.80;;;;;;4935936;29;20035;-70
2021/10/18 01:40:35;;;;;;;18.20;13.43;;;256.10;2124.80;;;;;;4935040;29;20395;-70
2021/10/18 01:43:02;;;;;;;20.85;13.05;;;256.10;2124.80;;;;;;4935719;29;20071;-69
2021/10/18 01:45:27;;;;;;;18.10;13.38;;;256.20;2099.20;;;;;;4935334;29;20028;-69
2021/10/18 01:47:53;;;;;;;20.00;13.95;;;256.30;2073.60;;;;;;4935500;29;20032;-69
2021/10/18 01:50:21;;;;;;;18.48;13.77;;;256.30;2073.60;;;;;;4935210;29;20050;-68
2021/10/18 01:52:49;;;;;;;21.70;13.70;;;256.20;2099.20;;;;;;4935841;29;20395;-68
2021/10/18 01:55:16;;;;;;;15.50;12.45;;;256.40;2073.60;;;;;;4934980;29;20048;-68
2021/10/18 01:57:42;;;;;;;19.38;12.85;;;256.20;2099.20;;;;;;4934971;29;20055;-69
2021/10/18 02:00:10;;;;;;;16.20;12.57;;;256.10;2099.20;;;;;;4935235;29;20059;-69
2021/10/18 02:02:36;;;;;;;16.77;12.38;;;256.10;2099.20;;;;;;4935186;29;20051;-68
2021/10/18 02:05:02;;;;;;;16.08;12.73;;;256.10;2099.20;;;;;;4935238;29;20475;-68
2021/10/18 02:07:28;;;;;;;17.73;12.65;;;256.10;2124.80;;;;;;4935182;29;20043;-68
2021/10/18 02:09:54;;;;;;;20.35;12.90;;;231.30;2124.80;;;;;;4935196;29;20036;-68
2021/10/18 02:12:21;;;;;;;18.42;12.98;;;256.20;2073.60;;;;;;4935319;29;20397;-68
2021/10/18 02:14:47;;;;;;;18.90;13.25;;;256.20;2099.20;;;;;;4935043;29;20107;-68
2021/10/18 02:17:13;;;;;;;22.73;14.25;;;256.10;2099.20;;;;;;4935271;29;20536;-68
2021/10/18 02:19:38;;;;;;;18.35;13.68;;;256.20;2099.20;;;;;;4933378;29;20063;-69
2021/10/18 02:22:04;;;;;;;18.13;13.15;;;256.20;2073.60;;;;;;4935285;29;20028;-68
2021/10/18 02:24:30;;;;;;;16.65;13.50;;;256.10;2073.60;;;;;;4934746;29;20079;-68
2021/10/18 02:26:56;;;;;;;16.85;12.68;;;256.00;2099.20;;;;;;4934829;29;20036;-68
2021/10/18 02:29:22;;;;;;;17.85;12.82;;;231.30;2099.20;;;;;;4934900;29;20024;-68
2021/10/18 02:31:48;;;;;;;15.90;12.60;;;231.30;2099.20;;;;;;4934871;29;20514;-67
2021/10/18 02:34:13;;;;;;;17.85;13.15;;;231.30;2124.80;;;;;;4934979;29;20031;-67
2021/10/18 02:36:39;;;;;;;21.52;13.27;;;231.30;2124.80;;;;;;4934908;29;20050;-68
2021/10/18 02:39:05;;;;;;;17.60;12.95;;;231.20;2124.80;;;;;;4935062;29;20403;-67
2021/10/18 02:41:31;;;;;;;18.63;13.55;;;231.20;2150.40;;;;;;4934922;29;20020;-68
2021/10/18 02:43:56;;;;;;;17.40;12.35;;;231.20;2150.40;;;;;;4935030;29;20043;-66
2021/10/18 02:46:22;;;;;;;15.52;12.00;;;231.20;2150.40;;;;;;4934905;29;20477;-66
2021/10/18 02:48:48;;;;;;;15.98;13.05;;;231.10;2150.40;;;;;;4935051;29;20036;-68
2021/10/18 02:51:13;;;;;;;18.80;12.73;;;231.10;2176.00;;;;;;4934885;29;20059;-68
2021/10/18 02:53:39;;;;;;;18.60;12.90;;;231.20;2150.40;;;;;;4937481;29;20398;-68
2021/10/18 02:56:05;;;;;;;18.40;13.40;;;231.10;2150.40;;;;;;4938503;29;20051;-68
2021/10/18 02:58:31;;;;;;;21.10;12.98;;;231.30;2124.80;;;;;;4938333;29;20032;-69
2021/10/18 03:00:56;;;;;;;20.45;11.68;;;231.10;2150.40;;;;;;4932035;29;20633;-70
2021/10/18 03:03:22;;;;;;;19.60;12.93;;;231.10;2124.80;;;;;;4938258;29;20155;-71
2021/10/18 03:05:48;;;;;;;18.00;12.80;;;231.00;2150.40;;;;;;4932187;29;20115;-69
2021/10/18 03:08:13;;;;;;;16.30;12.30;;;231.10;2150.40;;;;;;4936999;29;20389;-72
2021/10/18 03:10:42;;;;;;;16.67;12.40;;;231.20;2150.40;;;;;;4937986;29;20039;-70
2021/10/18 03:13:09;;;;;;;18.98;13.48;;;231.10;2150.40;;;;;;4938048;29;20032;-68
2021/10/18 03:15:35;;;;;;;17.45;13.10;;;231.10;2150.40;;;;;;4938048;29;20020;-71
2021/10/18 03:18:01;;;;;;;18.67;13.55;;;231.20;2124.80;;;;;;4938057;29;20063;-68
2021/10/18 03:20:27;;;;;;;17.80;13.75;;;231.20;2150.40;;;;;;4937967;29;20036;-68
2021/10/18 03:22:53;;;;;;;21.15;13.38;;;231.20;2124.80;;;;;;4938115;29;20039;-67
2021/10/18 03:25:19;;;;;;;17.08;13.00;;;231.20;2124.80;;;;;;4937720;29;20042;-67
2021/10/18 03:27:45;;;;;;;16.55;12.90;;;231.10;2124.80;;;;;;4937603;29;20030;-69
2021/10/18 03:30:11;;;;;;;18.58;13.73;;;231.20;2099.20;;;;;;4937636;29;20031;-67
2021/10/18 03:32:37;;;;;;;18.92;13.05;;;231.20;2124.80;;;;;;4937848;29;20040;-67
2021/10/18 03:35:04;;;;;;;18.27;13.02;;;231.10;2124.80;;;;;;4937731;29;20442;-67
2021/10/18 03:37:30;;;;;;;20.33;13.98;;;231.00;2150.40;;;;;;4934143;29;20483;-67
2021/10/18 03:39:56;;;;;;;21.13;13.85;;;231.00;2150.40;;;;;;4937627;29;20103;-68
2021/10/18 03:42:22;;;;;;;19.27;14.38;;;231.00;2124.80;;;;;;4937433;29;20086;-67
2021/10/18 03:44:47;;;;;;;24.17;15.05;;;231.00;2124.80;;;;;;4937574;29;20043;-66
2021/10/18 03:47:14;;;;;;;22.85;16.38;;;231.00;2124.80;;;;;;4937180;29;20028;-69
2021/10/18 03:49:39;;;;;;;29.45;20.95;;;231.00;2124.80;;;;;;4937398;29;20024;-67
2021/10/18 03:52:05;;;;;;;24.90;17.48;;;231.00;2124.80;;;;;;4936246;29;20038;-67
2021/10/18 03:54:31;;;;;;;22.75;15.77;;;231.00;2124.80;;;;;;4937114;29;20052;-70
2021/10/18 03:56:57;;;;;;;22.08;16.15;;;231.00;2124.80;;;;;;4937416;29;20115;-68
2021/10/18 03:59:22;;;;;;;21.75;16.75;;;231.00;2124.80;;;;;;4937090;29;20082;-71
2021/10/18 04:01:48;;;;;;;18.90;14.95;;;231.00;2124.80;;;;;;4930568;29;20074;-67
2021/10/18 04:04:14;;;;;;;20.08;14.88;;;231.00;2124.80;;;;;;4936798;29;20063;-65
2021/10/18 04:06:40;;;;;;;22.15;17.42;;;231.00;2124.80;;;;;;4930491;29;20032;-68
2021/10/18 04:09:06;;;;;;;25.83;16.70;;;231.00;2124.80;;;;;;4937115;29;20470;-69
2021/10/18 04:11:38;;;;;;;22.95;15.65;;;231.00;2124.80;;;;;;4919872;29;20042;-68
2021/10/18 04:14:05;;;;;;;20.13;15.35;;;230.90;2150.40;;;;;;4936963;29;20023;-68
2021/10/18 04:16:32;;;;;;;24.05;17.42;;;230.90;2150.40;;;;;;4927962;29;20036;-68
2021/10/18 04:18:58;;;;;;;27.17;18.27;;;230.90;2150.40;;;;;;4936937;29;20483;-71
2021/10/18 04:21:23;;;;;;;35.38;20.17;;;230.90;2124.80;;;;;;4936677;29;20042;-69
2021/10/18 04:23:49;;;;;;;31.75;20.27;;;230.80;2150.40;;;;;;4936696;29;20026;-75
2021/10/18 04:26:15;;;;;;;33.60;20.55;;;230.80;2150.40;;;;;;4932727;29;20036;-70
2021/10/18 04:28:40;;;;;;;34.95;20.13;;;230.80;2150.40;;;;;;4936545;29;20076;-71
2021/10/18 04:31:06;;;;;;;29.80;20.13;;;230.90;2150.40;;;;;;4936450;29;20061;-71
2021/10/18 04:33:32;;;;;;;32.42;22.95;;;230.90;2150.40;;;;;;4936584;29;20038;-72
2021/10/18 04:35:58;;;;;;;39.13;24.45;;;230.90;2150.40;;;;;;4937319;29;20039;-72
2021/10/18 04:38:24;;;;;;;27.98;20.38;;;230.90;2150.40;;;;;;4936617;29;20031;-71
2021/10/18 04:40:49;;;;;;;40.50;26.25;;;230.90;2150.40;;;;;;4936491;29;20474;-70
2021/10/18 04:43:15;;;;;;;28.23;17.40;;;230.90;2150.40;;;;;;4935037;29;20040;-71
2021/10/18 04:45:41;;;;;;;28.75;16.15;;;230.90;2150.40;;;;;;4936248;29;20107;-71
2021/10/18 04:48:07;;;;;;;25.98;17.27;;;230.90;2150.40;;;;;;4936261;29;20031;-71
2021/10/18 04:50:32;;;;;;;29.48;16.92;;;231.00;2124.80;;;;;;4936114;29;20040;-71
2021/10/18 04:52:58;;;;;;;25.90;15.50;;;231.00;2150.40;;;;;;4935909;29;20024;-74
2021/10/18 04:55:24;;;;;;;27.80;17.65;;;231.00;2150.40;;;;;;4939913;29;20051;-72
2021/10/18 04:57:58;;;;;;;26.60;18.90;;;230.90;2150.40;;;;;;4954918;29;20023;-71
2021/10/18 05:00:27;;;;;;;28.90;20.33;;;230.80;2176.00;;;;;;4944766;29;20059;-72
2021/10/18 05:02:53;;;;;;;30.52;19.42;;;230.80;2176.00;;;;;;4933893;29;20055;-72
2021/10/18 05:05:20;;;;;;;41.90;21.35;;;230.90;2150.40;;;;;;4955366;29;20031;-73
2021/10/18 05:08:02;;;;;;;33.38;22.27;;;230.80;2150.40;;;;;;4941357;29;20091;-73
2021/10/18 05:10:28;;;;;;;36.20;22.88;;;230.80;2150.40;;;;;;4936152;29;20521;-72
2021/10/18 05:12:54;;;;;;;40.95;25.63;;;230.90;2150.40;;;;;;4935999;29;20036;-73
2021/10/18 05:15:20;;;;;;;41.00;24.77;;;230.90;2176.00;;;;;;4935206;29;20520;-72
2021/10/18 05:17:45;;;;;;;37.10;24.60;;;231.00;2124.80;;;;;;4933941;29;20032;-73
2021/10/18 05:20:11;;;;;;;36.25;23.45;;;230.90;2124.80;;;;;;4935867;29;20039;-73
2021/10/18 05:22:37;;;;;;;37.42;24.65;;;230.90;2124.80;;;;;;4935987;29;20051;-73
2021/10/18 05:25:03;;;;;;;38.45;24.55;;;230.90;2150.40;;;;;;4935900;29;20431;-73
2021/10/18 05:27:29;;;;;;;37.28;24.80;;;231.00;2124.80;;;;;;4935814;29;20102;-73
2021/10/18 05:29:55;;;;;;;45.58;27.35;;;231.10;2124.80;;;;;;4940569;29;20131;-73
2021/10/18 05:32:20;;;;;;;90.28;59.78;;;231.00;2124.80;;;;;;4935651;29;20035;-72
2021/10/18 05:34:46;;;;;;;69.05;48.78;;;231.00;2124.80;;;;;;4935437;29;20032;-72
2021/10/18 05:37:12;;;;;;;71.68;49.35;;;231.10;2124.80;;;;;;4938068;29;20042;-72
2021/10/18 05:39:37;;;;;;;48.45;36.72;;;231.00;2150.40;;;;;;4935959;29;20032;-72
2021/10/18 05:42:03;;;;;;;48.22;30.63;;;231.00;2124.80;;;;;;4935461;29;20127;-73
2021/10/18 05:44:29;;;;;;;51.47;32.15;;;231.00;2150.40;;;;;;4935983;29;20023;-73
2021/10/18 05:46:55;;;;;;;52.35;32.85;;;231.00;2124.80;;;;;;4934031;29;20031;-72
2021/10/18 05:49:21;;;;;;;103.63;75.47;;;231.00;2124.80;;;;;;4924893;29;20028;-73
2021/10/18 05:51:46;;;;;;;71.93;45.90;;;231.20;2124.80;;;;;;4935369;29;20109;-73
2021/10/18 05:54:12;;;;;;;267.35;194.45;;;231.30;2099.20;;;;;;4935007;29;20091;-73
2021/10/18 05:56:38;;;;;;;112.30;67.93;;;231.30;2124.80;;;;;;4935322;29;20132;-73
2021/10/18 05:59:03;;;;;;;200.75;119.57;;;256.10;2099.20;;;;;;4931950;29;20099;-72
2021/10/18 06:01:29;;;;;;;132.63;79.75;;;256.10;2099.20;;;;;;4934830;29;20031;-72
2021/10/18 06:03:55;;;;;;;77.22;50.55;;;256.00;2124.80;;;;;;4935292;29;20028;-73
2021/10/18 06:06:22;;;;;;;90.97;58.53;;;256.10;2099.20;;;;;;4934889;29;20023;-72
2021/10/18 06:08:49;;;;;;;117.72;69.45;;;256.20;2124.80;;;;;;4935097;29;20505;-73
2021/10/18 06:11:18;;;;;;;106.90;64.28;;;;;;;;;;4934794;29;20039;-72
2021/10/18 06:13:44;;;;;;;125.03;76.95;;;;;;;;;;4934919;29;20034;-72
2021/10/18 06:16:10;;;;;;;77.35;48.65;;;;;;;;;;4934908;29;20110;-73
2021/10/18 06:18:36;;;;;;;55.83;36.58;;;;;;;;;;4921739;29;20489;-73
2021/10/18 06:21:02;;;;;;;66.75;40.85;;;;;;;;;;4934985;29;20431;-73
2021/10/18 06:23:28;;;;;;;94.40;59.88;;;;;;;;;;4934878;29;20098;-73
2021/10/18 06:25:54;;;;;;;65.55;42.92;;;;;;;;;;4935242;29;20131;-73
2021/10/18 06:28:21;;;;;;;63.88;44.70;;;;;;;;;;4938726;29;20031;-73
2021/10/18 06:30:47;;;;;;;62.80;42.42;;;;;;;;;;4938502;29;20138;-73
2021/10/18 06:33:13;;;;;;;50.42;35.40;;;;;;;;;;4938810;29;20497;-73
2021/10/18 06:35:39;;;;;;;51.28;32.67;;;;;;;;;;4937060;29;20494;-73
2021/10/18 06:38:10;;;;;;;53.83;32.25;;;;;;;;;;4937446;29;20051;-73
2021/10/18 06:40:36;;;;;;;47.50;32.28;;;;;;;;;;4950838;29;20020;-73
2021/10/18 06:43:02;;;;;;;44.67;30.38;;;;;;;;;;4938626;29;20039;-73
2021/10/18 06:45:28;;;;;;;50.35;30.67;;;307.70;1996.80;;;;;;4936789;29;20036;-73
2021/10/18 06:47:54;;;;;;;101.10;61.88;;;;;;;;;;4938572;29;20032;-72
2021/10/18 06:50:22;;;;;;;68.05;43.13;;;332.90;1920.00;;;;;;4938158;29;20039;-73
2021/10/18 06:52:51;;;;;;;55.47;39.78;;;333.10;1894.40;;;;;;4938405;29;20532;-72
2021/10/18 06:55:19;;;;;;;54.92;35.50;;;333.60;1868.80;;;;;;4938089;29;20052;-73
2021/10/18 06:57:45;;;;;;;49.45;34.30;;;333.50;1971.20;;;;;;4938326;29;20020;-73
2021/10/18 07:00:11;;;;;;;59.92;34.17;;;333.60;2048.00;;;;;;4936663;29;20493;-73
2021/10/18 07:02:37;;;;;;;61.72;38.10;;;333.50;1894.40;;;;;;4937960;29;20024;-73
2021/10/18 07:05:04;;;;;;;47.00;34.28;;;333.50;1920.00;;;;;;4938351;29;20030;-73
2021/10/18 07:07:30;;;;;;;46.17;31.77;;;333.50;1920.00;;;;;;4938163;29;20054;-73
2021/10/18 07:10:00;;;;;;;33.10;25.25;;;333.60;1894.40;;;;;;4937966;29;20016;-73
2021/10/18 07:12:30;;;;;;;37.85;25.95;;;358.40;1894.40;;;;;;4938071;29;20023;-74
2021/10/18 07:14:58;;;;;;;36.25;27.27;;;358.80;1843.20;;;;;;4937793;29;20022;-74
2021/10/18 07:17:24;;;;;;;44.95;27.58;;;358.90;1843.20;;;;;;4938111;29;20304;-73
2021/10/18 07:19:52;;;;;;;37.75;26.33;;;359.00;1817.60;;;;;;4937778;29;20026;-74
2021/10/18 07:22:18;;;;;;;69.22;48.08;;;359.10;1868.80;;;;;;4937974;29;20158;-74
2021/10/18 07:24:44;;;;;;;32.58;23.38;;;359.10;1843.20;;;;;;4937685;29;20019;-73
2021/10/18 07:27:11;;;;;;;43.80;28.80;;;359.20;1843.20;;;;;;4937839;29;20038;-73
2021/10/18 07:29:38;;;;;;;44.95;31.98;;;;;;;;;;4937465;29;20478;-73
2021/10/18 07:32:05;;;;;;;57.35;38.90;;;384.50;1766.40;;;;;;4937491;29;20028;-73
2021/10/18 07:34:30;;;;;;;72.15;49.13;;;384.60;1766.40;;;;;;4937648;29;20122;-73
2021/10/18 07:36:56;;;;;;;58.50;39.25;;;384.70;1792.00;;;;;;4936150;29;20135;-73
2021/10/18 07:39:24;;;;;;;56.53;37.83;;;384.80;1766.40;;;;;;4936951;29;20048;-73
2021/10/18 07:41:52;;;;;;;77.63;52.70;;;409.70;1792.00;;;;;;4937794;29;20027;-73
2021/10/18 07:44:19;;;;;;;77.32;49.28;;;;;;;;;;4937805;29;20038;-73
2021/10/18 07:46:46;;;;;;;69.60;49.25;;;;;;;;;;4937406;29;20498;-73
2021/10/18 07:49:12;;;;;;;74.65;50.67;;;;;;;;;;4937190;29;20031;-73
2021/10/18 07:51:39;;;;;;;74.65;46.45;;;;;;;;;;4937224;29;20446;-73
2021/10/18 07:54:05;;;;;;;61.67;43.80;;;;;;;;;;4949122;28;20463;-74
2021/10/18 07:56:32;;;;;;;60.88;42.78;;;;;;;;;;4937043;29;20111;-74
2021/10/18 07:58:58;;;;;;;60.65;42.08;;;436.10;1587.20;;;;;;4937141;29;20059;-74
2021/10/18 08:01:24;;;;;;;68.75;44.97;;;;;;;;;;4936929;29;20301;-74
2021/10/18 08:03:50;;;;;;;54.28;39.15;;;;;;;;;;4937155;29;20374;-74
2021/10/18 08:06:17;;;;;;;59.75;40.92;;;;;;;;;;4936507;29;20031;-73
2021/10/18 08:08:53;;;;;;;55.08;40.67;;;;;;;;;;4937028;29;20457;-74
2021/10/18 08:11:19;;;;;;;63.55;46.75;;;461.40;1536.00;;;;;;4935450;29;20449;-74
2021/10/18 08:13:46;;;;;;;68.55;48.80;;;461.20;1561.60;;;;;;4936710;29;20063;-74
2021/10/18 08:16:12;;;;;;;54.45;40.58;;;461.40;1561.60;;;;;;4936661;29;20024;-74
2021/10/18 08:18:38;;;;;;;46.05;35.70;;;461.50;1561.60;;;;;;4936962;29;20028;-74
2021/10/18 08:21:10;;;;;;;67.75;40.00;;;486.40;1510.40;;;;;;4935208;29;20122;-74
2021/10/18 08:23:36;;;;;;;73.85;46.50;;;486.60;1459.20;;;;;;4936382;29;20016;-73
2021/10/18 08:26:04;;;;;;;87.43;71.35;;;486.60;1459.20;;;;;;4936539;29;20024;-74
2021/10/18 08:28:30;;;;;;;52.10;35.67;;;486.80;1459.20;;;;;;4936396;29;20466;-74
2021/10/18 08:30:56;;;;;;;53.03;29.77;;;487.00;1408.00;;;;;;4936724;29;20039;-74
2021/10/18 08:33:23;;;;;;;55.58;40.63;;;487.20;1382.40;;;;;;4936668;29;20374;-74
2021/10/18 08:35:49;;;;;;;48.25;32.40;;;512.10;1356.80;;;;;;4936636;29;20489;-73
2021/10/18 08:41:01;;;;;;;41.30;30.65;;;;;;;;;;4936441;29;20024;-74
2021/10/18 08:46:07;;;;;;;73.95;35.78;;;537.70;1305.60;;;;;;4936333;29;20034;-74
2021/10/18 08:48:33;;;;;;;65.75;35.75;;;537.90;1305.60;;;;;;4936228;29;20367;-74
2021/10/18 08:51:00;;;;;;;49.00;32.63;;;;;;;;;;4935150;29;20106;-74
2021/10/18 08:53:26;;;;;;;43.28;32.00;;;563.40;1254.40;;;;;;4935991;29;20062;-74
2021/10/18 08:55:52;;;;;;;40.00;30.45;;;;;;;;;;4936317;29;20463;-74
2021/10/18 08:58:18;;;;;;;41.05;31.27;;;;;;;;;;4936037;29;20402;-74
2021/10/18 09:00:51;;;;;;;57.60;32.38;;;;;;;;;;4935938;29;20028;-74
2021/10/18 09:03:17;;;;;;;48.63;34.55;;;;;;;;;;4947683;29;20071;-74
2021/10/18 09:05:43;;;;;;;36.58;29.73;;;;;;;;;;4935895;29;20032;-74
2021/10/18 09:08:09;;;;;;;49.22;40.30;;;;;;;;;;4934706;29;20024;-74
2021/10/18 09:10:35;;;;;;;62.33;34.05;;;;;;;;;;4935675;29;20032;-74
2021/10/18 09:13:11;;;;;;;54.50;31.77;;;640.40;1024.00;;;;;;4935874;29;20414;-74
2021/10/18 09:15:37;;;;;;;42.05;30.67;;;;;;;;;;4935670;29;20059;-74
2021/10/18 09:18:04;;;;;;;38.80;27.83;;;666.10;972.80;;;;;;4936153;29;20055;-73
2021/10/18 09:20:32;;;;;;;36.50;27.90;;;666.50;921.60;;;;;;4935528;29;20030;-79
2021/10/18 09:23:25;;;;;;;31.13;26.05;;;;;;;;;;4935612;29;20074;-75
2021/10/18 09:26:16;;;;;;;46.30;28.00;;;;;;;;;;4895673;29;20572;-74
2021/10/18 09:28:44;;;;;;;37.80;27.55;;;;;;;;;;4895528;29;20487;-75
2021/10/18 09:31:17;;;;;;;62.15;33.15;;;;;;;;;;4895251;29;20048;-75
2021/10/18 09:33:47;;;;;;;42.63;28.50;;;;;;;;;;4895459;29;20031;-75
2021/10/18 09:36:18;;;;;;;62.75;29.85;;;;;;;;;;4895551;29;20045;-76
2021/10/18 09:38:44;;;;;;;64.65;33.70;;;;;;;;;;4895353;29;20107;-75
2021/10/18 09:41:10;;;;;;;43.55;28.45;;;793.60;793.60;;;;;;4895377;29;20064;-75
2021/10/18 09:43:40;;;;;;;38.20;27.45;;;794.50;742.40;;;;;;4895264;29;20079;-76
2021/10/18 10:53:29;;;;;;;33.40;18.45;;;665.70;947.20;;;;;;4915793;29;20040;-74
2021/10/18 10:55:58;;;;;;;43.30;19.85;;;640.70;972.80;;;;;;4934597;29;20479;-75
2021/10/18 10:58:30;;;;;;;28.77;19.33;;;640.20;947.20;;;;;;4934727;29;20103;-75
2021/10/18 11:00:56;;;;;;;35.25;18.83;;;615.30;1075.20;;;;;;4934162;29;20497;-74
2021/10/18 11:03:31;;;;;;;38.38;21.52;;;615.00;998.40;;;;;;4934349;29;20031;-74
2021/10/18 11:06:08;;;;;;;28.98;17.48;;;614.50;1049.60;;;;;;4934143;29;20036;-74
2021/10/18 11:08:42;;;;;;;29.73;20.42;;;;;;;;;;4922753;29;20035;-74
2021/10/18 11:11:16;;;;;;;28.77;18.63;;;;;;;;;;4934428;29;20067;-74
2021/10/18 11:13:51;;;;;;;44.95;23.25;;;;;;;;;;4935656;29;20125;-74
2021/10/18 11:16:20;;;;;;;42.33;19.70;;;588.90;1100.80;;;;;;4937734;29;20032;-74
2021/10/18 11:18:52;;;;;;;50.22;20.17;;;588.80;1100.80;;;;;;4937855;29;20095;-74
2021/10/18 11:21:21;;;;;;;54.13;19.17;;;588.80;1126.40;;;;;;4937901;29;20023;-74
2021/10/18 11:24:02;;;;;;;37.00;22.10;;;589.20;1075.20;;;;;;4938138;29;20447;-74
2021/10/18 11:26:29;;;;;;;43.13;26.35;;;;;;;;;;4938279;29;20043;-74
2021/10/18 11:28:57;;;;;;;40.15;26.83;;;;;;;;;;4937953;29;20020;-74
2021/10/18 11:31:28;;;;;;;68.05;21.90;;;614.80;998.40;;;;;;4937647;29;20032;-75
2021/10/18 11:33:54;;;;;;;;;;;;;;;;;;4938093;29;20102;-74
2021/10/18 11:36:20;;;;;;;48.25;18.98;;;;;;;;;;4936622;29;19961;-74
2021/10/18 11:38:46;;;;;;;30.35;22.38;;;;;;;;;;4937523;29;20027;-74
2021/10/18 11:41:12;;;;;;;30.10;18.90;;;;;;;;;;4936053;29;20047;-74
2021/10/18 11:43:40;;;;;;;37.42;18.95;;;;;;;;;;4937620;29;20027;-74
2021/10/18 11:46:06;;;;;;;43.65;21.15;;;;;;;;;;4937467;29;20012;-77
2021/10/18 11:48:32;;;;;;;19.35;15.75;;;;;;;;;;4937595;29;20034;-79
2021/10/18 11:51:02;;;;;;;25.05;17.40;;;;;;;;;;4937457;29;20032;-79
2021/10/18 11:53:29;;;;;;;22.15;15.80;;;;;;;;;;4937275;29;20027;-79
2021/10/18 11:56:00;;;;;;;23.63;17.10;;;845.40;640.00;;;;;;4937376;29;20043;-78
2021/10/18 11:58:26;;;;;;;;;;;;;;;;;;4938093;29;20031;-79
2021/10/18 12:01:10;;;;;;;34.05;17.23;;;793.90;742.40;;;;;;4937322;29;20284;-79
2021/10/18 12:03:37;;;;;;;40.38;18.60;;;743.20;768.00;;;;;;4926766;29;20023;-78
2021/10/18 12:06:04;;;;;;;35.10;31.33;;;;;;;;;;4937229;29;20027;-78
2021/10/18 12:08:34;;;;;;;28.58;16.95;;;;;;;;;;4937274;29;20028;-79
2021/10/18 12:11:05;;;;;;;24.67;16.63;;;;;;;;;;4937208;29;20055;-79
2021/10/18 12:13:32;;;;;;;26.02;16.15;;;;;;;;;;4937201;29;20066;-77
2021/10/18 12:16:03;;;;;;;32.08;18.73;;;844.80;665.60;;;;;;4937082;29;20489;-78
2021/10/18 12:18:32;;;;;;;48.95;19.23;;;819.60;665.60;;;;;;4937008;29;20071;-79
2021/10/18 12:21:07;;;;;;;48.85;19.30;;;819.40;665.60;;;;;;4937167;29;20028;-78
2021/10/18 12:23:37;;;;;;;52.72;21.25;;;;;;;;;;4936766;29;20031;-79
2021/10/18 12:26:04;;;;;;;34.70;19.00;;;;;;;;;;4936864;29;20042;-78
2021/10/18 12:28:38;;;;;;;27.75;18.23;;;;;;;;;;4936851;29;20059;-80
2021/10/18 12:31:04;;;;;;;33.42;20.48;;;717.40;793.60;;;;;;4936679;29;20031;-79
2021/10/18 12:33:34;;;;;;;37.58;18.67;;;;;;;;;;4936724;29;20454;-79
2021/10/18 12:36:01;;;;;;;45.67;24.65;;;666.50;844.80;;;;;;4936577;29;20028;-78
2021/10/18 12:38:28;;;;;;;37.92;20.25;;;;;;;;;;4936485;29;20028;-77
2021/10/18 12:41:18;;;;;;;31.42;20.00;;;640.70;870.40;;;;;;4936699;29;20024;-77
2021/10/18 12:43:45;;;;;;;41.17;21.13;;;640.20;921.60;;;;;;4936536;29;20486;-77
2021/10/18 12:46:21;;;;;;;45.10;26.60;;;;;;;;;;4936539;29;20028;-79
2021/10/18 12:49:26;;;;;;;28.23;20.38;;;614.40;972.80;;;;;;4936437;29;20032;-78
2021/10/18 12:51:52;;;;;;;30.80;22.17;;;614.40;1024.00;;;;;;4936246;29;20040;-79
2021/10/18 12:54:26;;;;;;;50.42;35.55;;;;;;;;;;4935801;29;20051;-78
2021/10/18 12:57:02;;;;;;;34.17;17.00;;;;;;;;;;4935319;29;20031;-78
2021/10/18 12:59:29;;;;;;;29.42;19.58;;;;;;;;;;4923327;29;20023;-77
2021/10/18 13:02:13;;;;;;;36.33;17.70;;;;;;;;;;4936625;29;20047;-77
2021/10/18 13:04:40;;;;;;;38.00;22.15;;;;;;;;;;4936181;29;20103;-79
2021/10/18 13:07:06;;;;;;;32.88;22.23;;;;;;;;;;4936204;29;20539;-78
2021/10/18 13:09:32;;;;;;;21.38;16.10;;;;;;;;;;4935950;29;20545;-79
2021/10/18 13:11:58;;;;;;;62.53;21.52;;;;;;;;;;4935992;29;20035;-79
2021/10/18 13:14:24;;;;;;;40.35;15.23;;;;;;;;;;4936021;29;20024;-79
2021/10/18 13:16:50;;;;;;;48.67;19.40;;;;;;;;;;4935940;29;20030;-75
2021/10/18 13:19:16;;;;;;;32.92;15.02;;;;;;;;;;4936118;29;20050;-78
2021/10/18 13:21:42;;;;;;;26.42;14.27;;;;;;;;;;4935943;29;20043;-77
2021/10/18 13:24:08;;;;;;;27.55;14.10;;;;;;;;;;4934388;29;20043;-78
2021/10/18 13:26:34;;;;;;;27.60;13.95;;;;;;;;;;4935799;29;20103;-79
2021/10/18 13:29:00;;;;;;;39.95;20.10;;;;;;;;;;4935751;29;20083;-76
2021/10/18 13:31:27;;;;;;;66.25;18.75;;;;;;;;;;4935690;29;20039;-76
2021/10/18 13:33:52;;;;;;;31.52;15.52;;;691.40;793.60;;;;;;4935457;29;20091;-78
2021/10/18 13:36:18;;;;;;;38.40;21.48;;;691.20;819.20;;;;;;4934861;29;20040;-77
2021/10/18 13:38:44;;;;;;;32.03;16.75;;;;;;;;;;4935931;29;20034;-77
2021/10/18 13:41:10;;;;;;;39.38;19.23;;;;;;;;;;4935700;29;20019;-78
2021/10/18 13:43:36;;;;;;;47.47;31.33;;;640.20;972.80;;;;;;4935805;29;20028;-77
2021/10/18 13:46:02;;;;;;;47.53;26.45;;;;;;;;;;4935851;29;20043;-78
2021/10/18 13:48:28;;;;;;;34.08;21.80;;;;;;;;;;4933964;29;20039;-79